createdAt,value
2022-11-21T00:00:56.011Z,20.80
2022-11-21T00:03:25.244Z,19.53
2022-11-21T00:05:52.948Z,20.50
2022-11-21T00:08:21.920Z,19.80
2022-11-21T00:10:49.992Z,18.73
2022-11-21T00:13:19.456Z,18.37
2022-11-21T00:15:47.288Z,19.50
2022-11-21T00:18:14.935Z,19.73
2022-11-21T00:20:44.431Z,18.43
2022-11-21T00:23:12.376Z,18.70
2022-11-21T00:25:40.193Z,19.20
2022-11-21T00:28:07.678Z,18.80
2022-11-21T00:30:35.133Z,19.93
2022-11-21T00:33:02.610Z,18.30
2022-11-21T00:35:31.872Z,20.60
2022-11-21T00:38:00.796Z,19.90
2022-11-21T00:40:28.276Z,18.90
2022-11-21T00:42:55.740Z,17.77
2022-11-21T00:45:24.645Z,17.47
2022-11-21T00:47:54.956Z,20.07
2022-11-21T00:50:22.420Z,19.10
2022-11-21T00:52:49.880Z,17.87
2022-11-21T00:55:18.747Z,18.70
2022-11-21T00:57:46.258Z,19.00
2022-11-21T01:00:15.173Z,19.17
2022-11-21T01:02:42.682Z,18.57
2022-11-21T01:05:10.358Z,18.80
2022-11-21T01:07:37.886Z,17.90
2022-11-21T01:10:06.536Z,17.07
2022-11-21T01:12:35.389Z,18.60
2022-11-21T01:15:02.976Z,19.90
2022-11-21T01:17:33.035Z,18.97
2022-11-21T01:20:00.606Z,18.23
2022-11-21T01:22:28.175Z,17.87
2022-11-21T01:24:55.657Z,19.00
2022-11-21T01:27:23.138Z,16.20
2022-11-21T01:29:52.624Z,18.47
2022-11-21T01:32:20.130Z,17.10
2022-11-21T01:34:48.001Z,19.23
2022-11-21T01:37:15.505Z,17.00
2022-11-21T01:39:42.954Z,20.70
2022-11-21T01:42:13.540Z,19.83
2022-11-21T01:44:50.488Z,17.90
2022-11-21T01:47:19.646Z,16.40
2022-11-21T01:49:47.999Z,17.00
2022-11-21T01:52:19.170Z,15.50
2022-11-21T01:54:50.227Z,17.07
2022-11-21T01:57:21.575Z,14.60
2022-11-21T01:59:52.162Z,14.90
2022-11-21T02:02:22.509Z,14.47
2022-11-21T02:04:50.776Z,13.10
2022-11-21T02:07:20.617Z,15.00
2022-11-21T02:09:51.922Z,14.10
2022-11-21T02:12:24.175Z,12.77
2022-11-21T02:14:52.935Z,15.10
2022-11-21T02:17:22.335Z,14.07
2022-11-21T02:19:53.833Z,15.10
2022-11-21T02:22:27.548Z,13.90
2022-11-21T02:25:05.380Z,14.33
2022-11-21T02:27:33.332Z,13.70
2022-11-21T02:30:02.080Z,13.60
2022-11-21T02:32:34.501Z,12.73
2022-11-21T02:35:02.063Z,12.30
2022-11-21T02:37:30.070Z,15.13
2022-11-21T02:40:00.250Z,13.30
2022-11-21T02:42:32.698Z,13.97
2022-11-21T02:45:05.151Z,12.47
2022-11-21T02:47:33.600Z,14.40
2022-11-21T02:50:04.672Z,12.87
2022-11-21T02:52:32.161Z,11.33
2022-11-21T02:54:59.646Z,11.83
2022-11-21T02:57:27.130Z,14.50
2022-11-21T02:59:55.948Z,13.67
2022-11-21T03:02:23.464Z,12.80
2022-11-21T03:04:51.028Z,12.40
2022-11-21T03:07:18.537Z,11.97
2022-11-21T03:09:46.104Z,13.10
2022-11-21T03:12:13.612Z,11.93
2022-11-21T03:14:41.148Z,12.73
2022-11-21T03:17:10.000Z,12.30
2022-11-21T03:19:37.638Z,12.80
2022-11-21T03:22:05.375Z,12.63
2022-11-21T03:24:32.959Z,12.73
2022-11-21T03:27:00.469Z,12.00
2022-11-21T03:29:27.949Z,12.80
2022-11-21T03:31:55.414Z,10.70
2022-11-21T03:34:25.319Z,12.50
2022-11-21T03:36:53.050Z,11.97
2022-11-21T03:39:23.459Z,11.90
2022-11-21T03:41:50.917Z,11.57
2022-11-21T03:44:18.506Z,12.53
2022-11-21T03:46:47.480Z,12.57
2022-11-21T03:49:16.557Z,12.03
2022-11-21T03:51:45.800Z,11.90
2022-11-21T03:54:13.565Z,12.10
2022-11-21T03:56:41.056Z,11.70
2022-11-21T03:59:08.580Z,12.60
2022-11-21T04:01:37.057Z,11.77
2022-11-21T04:04:05.132Z,11.83
2022-11-21T04:06:32.660Z,13.50
2022-11-21T04:09:01.466Z,12.40
2022-11-21T04:11:28.957Z,11.13
2022-11-21T04:13:56.551Z,12.97
2022-11-21T04:16:24.042Z,12.80
2022-11-21T04:18:51.785Z,12.10
2022-11-21T04:21:19.292Z,13.40
2022-11-21T04:23:46.750Z,13.90
2022-11-21T04:26:15.616Z,12.37
2022-11-21T04:28:43.099Z,13.13
2022-11-21T04:31:11.535Z,13.33
2022-11-21T04:33:39.694Z,13.37
2022-11-21T04:36:07.935Z,13.17
2022-11-21T04:38:35.487Z,14.37
2022-11-21T04:41:02.996Z,14.53
2022-11-21T04:43:31.870Z,16.70
2022-11-21T04:45:59.317Z,15.23
2022-11-21T04:48:26.869Z,14.93
2022-11-21T04:50:54.328Z,14.63
2022-11-21T04:53:21.917Z,14.17
2022-11-21T04:55:49.451Z,15.07
2022-11-21T04:58:16.930Z,13.40
2022-11-21T05:00:45.865Z,15.47
2022-11-21T05:03:13.316Z,14.60
2022-11-21T05:05:41.034Z,14.20
2022-11-21T05:08:08.522Z,16.03
2022-11-21T05:10:56.023Z,14.53
2022-11-21T05:13:22.595Z,14.70
2022-11-21T05:15:57.544Z,14.03
2022-11-21T05:18:25.093Z,14.07
2022-11-21T05:20:52.553Z,15.20
2022-11-21T05:23:20.087Z,16.70
2022-11-21T05:25:47.592Z,25.23
2022-11-21T05:28:15.080Z,15.80
2022-11-21T05:30:42.604Z,14.57
2022-11-21T05:33:11.605Z,15.00
2022-11-21T05:35:43.140Z,16.17
2022-11-21T05:38:11.102Z,15.70
2022-11-21T05:40:38.712Z,15.43
2022-11-21T05:43:23.831Z,16.40
2022-11-21T05:45:51.720Z,14.40
2022-11-21T05:48:20.619Z,15.57
2022-11-21T05:50:49.672Z,15.37
2022-11-21T05:53:17.705Z,15.87
2022-11-21T05:55:45.562Z,16.33
2022-11-21T05:58:13.349Z,14.93
2022-11-21T06:00:40.985Z,17.70
2022-11-21T06:03:28.266Z,15.47
2022-11-21T06:06:02.031Z,15.37
2022-11-21T06:08:30.888Z,16.37
2022-11-21T06:10:58.457Z,17.80
2022-11-21T06:13:26.079Z,19.30
2022-11-21T06:15:56.986Z,19.93
2022-11-21T06:18:24.600Z,19.30
2022-11-21T06:20:52.606Z,19.13
2022-11-21T06:23:21.735Z,20.47
2022-11-21T06:25:49.292Z,18.40
2022-11-21T06:28:16.853Z,22.17
2022-11-21T06:30:46.243Z,21.10
2022-11-21T06:33:13.873Z,18.60
2022-11-21T06:35:41.562Z,22.80
2022-11-21T06:38:09.283Z,22.70
2022-11-21T06:40:38.176Z,20.90
2022-11-21T06:43:05.861Z,21.07
2022-11-21T06:45:34.220Z,21.87
2022-11-21T06:48:02.654Z,22.10
2022-11-21T06:50:31.194Z,22.30
2022-11-21T06:52:59.472Z,23.40
2022-11-21T06:55:27.655Z,22.57
2022-11-21T06:57:59.774Z,20.73
2022-11-21T07:00:28.002Z,23.00
2022-11-21T07:03:01.628Z,22.43
2022-11-21T07:05:31.197Z,22.40
2022-11-21T07:07:59.746Z,23.40
2022-11-21T07:10:27.548Z,24.97
2022-11-21T07:13:16.728Z,24.90
2022-11-21T07:15:44.969Z,26.30
2022-11-21T07:18:12.558Z,25.60
2022-11-21T07:20:40.274Z,27.47
2022-11-21T07:23:08.547Z,27.47
2022-11-21T07:25:37.060Z,29.73
2022-11-21T07:28:07.728Z,26.07
2022-11-21T07:30:35.755Z,26.07
2022-11-21T07:33:05.329Z,27.33
2022-11-21T07:35:34.051Z,26.90
2022-11-21T07:38:01.642Z,27.90
2022-11-21T07:40:29.592Z,27.40
2022-11-21T07:43:04.436Z,27.37
2022-11-21T07:45:37.055Z,29.47
2022-11-21T07:48:06.169Z,27.47
2022-11-21T07:50:33.910Z,28.00
2022-11-21T07:53:02.911Z,28.80
2022-11-21T07:55:33.221Z,28.57
2022-11-21T07:58:04.263Z,26.90
2022-11-21T08:00:33.007Z,28.30
2022-11-21T08:03:01.912Z,25.73
2022-11-21T08:05:29.551Z,26.00
2022-11-21T08:07:57.083Z,25.10
2022-11-21T08:10:24.913Z,27.43
2022-11-21T08:12:52.467Z,27.43
2022-11-21T08:15:20.026Z,27.23
2022-11-21T08:17:47.947Z,27.60
2022-11-21T08:20:17.177Z,28.33
2022-11-21T08:22:44.790Z,28.33
2022-11-21T08:25:12.430Z,28.20
2022-11-21T08:27:40.321Z,30.17
2022-11-21T08:30:09.728Z,28.90
2022-11-21T08:32:37.452Z,32.10
2022-11-21T08:35:05.535Z,30.77
2022-11-21T08:37:34.459Z,32.37
2022-11-21T08:40:02.409Z,31.33
2022-11-21T08:42:30.017Z,31.73
2022-11-21T08:44:57.594Z,29.67
2022-11-21T08:47:25.444Z,30.67
2022-11-21T08:49:53.091Z,28.50
2022-11-21T08:52:20.773Z,26.97
2022-11-21T08:54:49.740Z,30.27
2022-11-21T08:57:17.522Z,29.53
2022-11-21T08:59:45.234Z,29.37
2022-11-21T09:02:12.960Z,27.80
2022-11-21T09:04:40.611Z,29.67
2022-11-21T09:07:08.411Z,26.97
2022-11-21T09:09:36.177Z,26.73
2022-11-21T09:12:05.702Z,28.33
2022-11-21T09:14:50.871Z,27.07
2022-11-21T09:17:36.335Z,27.00
2022-11-21T09:20:05.882Z,26.03
2022-11-21T09:22:33.551Z,25.70
2022-11-21T09:25:01.311Z,26.77
2022-11-21T09:27:31.131Z,25.67
2022-11-21T09:29:59.433Z,26.17
2022-11-21T09:32:27.168Z,25.20
2022-11-21T09:34:54.876Z,24.67
2022-11-21T09:37:22.574Z,24.80
2022-11-21T09:39:50.407Z,26.37
2022-11-21T09:42:38.125Z,26.93
2022-11-21T09:45:09.413Z,23.77
2022-11-21T09:47:38.719Z,23.73
2022-11-21T09:50:26.245Z,24.80
2022-11-21T09:52:58.179Z,23.37
2022-11-21T09:55:30.464Z,23.70
2022-11-21T09:58:03.363Z,22.50
2022-11-21T10:00:31.436Z,22.53
2022-11-21T10:02:59.405Z,22.23
2022-11-21T10:05:33.863Z,23.13
2022-11-21T10:08:08.528Z,19.03
2022-11-21T10:10:49.130Z,20.50
2022-11-21T10:13:26.751Z,19.50
2022-11-21T10:15:59.470Z,20.23
2022-11-21T10:18:54.337Z,20.83
2022-11-21T10:21:48.202Z,16.97
2022-11-21T10:24:27.021Z,17.63
2022-11-21T10:26:57.003Z,17.53
2022-11-21T10:29:27.912Z,17.37
2022-11-21T10:31:57.462Z,16.87
2022-11-21T10:34:27.360Z,15.77
2022-11-21T10:36:57.347Z,16.43
2022-11-21T10:39:30.251Z,14.20
2022-11-21T10:42:02.432Z,14.30
2022-11-21T10:44:49.363Z,12.97
2022-11-21T10:47:27.341Z,12.27
2022-11-21T10:50:01.213Z,14.00
2022-11-21T10:52:32.696Z,13.17
2022-11-21T10:55:06.003Z,14.40
2022-11-21T10:57:37.817Z,12.77
2022-11-21T11:00:21.133Z,12.50
2022-11-21T11:03:05.478Z,12.33
2022-11-21T11:05:34.444Z,12.40
2022-11-21T11:08:05.593Z,11.27
2022-11-21T11:10:34.494Z,11.33
2022-11-21T11:16:16.727Z,10.53
2022-11-21T11:18:48.966Z,10.50
2022-11-21T11:21:18.996Z,10.40
2022-11-21T11:23:47.163Z,9.40
2022-11-21T11:26:22.505Z,10.80
2022-11-21T11:28:50.268Z,10.90
2022-11-21T11:31:19.301Z,10.20
2022-11-21T11:34:03.923Z,10.80
2022-11-21T11:36:40.614Z,9.87
2022-11-21T11:39:15.755Z,9.47
2022-11-21T11:42:16.977Z,9.83
2022-11-21T11:45:08.860Z,9.80
2022-11-21T11:47:50.242Z,9.43
2022-11-21T11:50:25.949Z,9.70
2022-11-21T11:53:00.565Z,8.40
2022-11-21T11:55:33.710Z,8.63
2022-11-21T11:58:03.545Z,8.17
2022-11-21T12:00:36.393Z,7.40
2022-11-21T12:03:12.278Z,7.53
2022-11-21T12:05:52.107Z,7.87
2022-11-21T12:08:41.866Z,7.23
2022-11-21T12:11:37.708Z,6.60
2022-11-21T12:14:13.150Z,5.20
2022-11-21T12:16:42.385Z,6.13
2022-11-21T12:19:14.001Z,5.50
2022-11-21T12:21:41.608Z,6.10
2022-11-21T12:24:10.945Z,8.93
2022-11-21T12:26:48.433Z,9.07
2022-11-21T12:29:32.333Z,11.47
2022-11-21T12:32:15.812Z,10.30
2022-11-21T12:34:58.799Z,9.83
2022-11-21T12:37:35.162Z,9.70
2022-11-21T12:40:10.977Z,7.57
2022-11-21T12:42:51.500Z,9.17
2022-11-21T12:45:28.846Z,9.70
2022-11-21T12:48:47.078Z,9.07
2022-11-21T12:51:54.458Z,9.40
2022-11-21T12:54:51.292Z,11.30
2022-11-21T12:57:19.920Z,9.80
2022-11-21T12:59:53.580Z,8.50
2022-11-21T13:02:35.854Z,9.50
2022-11-21T13:05:05.481Z,8.50
2022-11-21T13:07:34.754Z,8.47
2022-11-21T13:10:04.514Z,8.03
2022-11-21T13:12:40.420Z,7.87
2022-11-21T13:15:19.218Z,8.10
2022-11-21T13:17:52.301Z,8.07
2022-11-21T13:20:25.246Z,7.77
2022-11-21T13:22:55.944Z,8.13
2022-11-21T13:25:47.367Z,8.10
2022-11-21T13:28:39.363Z,10.77
2022-11-21T13:31:28.360Z,8.33
2022-11-21T13:33:56.314Z,9.13
2022-11-21T13:36:38.880Z,8.90
2022-11-21T13:39:35.681Z,8.27
2022-11-21T13:42:26.531Z,9.33
2022-11-21T13:44:54.340Z,9.13
2022-11-21T13:48:13.767Z,10.23
2022-11-21T13:51:09.607Z,9.90
2022-11-21T13:53:58.376Z,10.30
2022-11-21T13:56:35.946Z,11.80
2022-11-21T13:59:13.260Z,9.97
2022-11-21T14:01:55.370Z,10.10
2022-11-21T14:04:58.388Z,10.50
2022-11-21T14:07:29.912Z,9.77
2022-11-21T14:09:58.742Z,10.30
2022-11-21T14:12:38.324Z,9.30
2022-11-21T14:15:21.079Z,10.47
2022-11-21T14:17:50.388Z,9.77
2022-11-21T14:20:21.041Z,9.50
2022-11-21T14:22:58.500Z,9.27
2022-11-21T14:25:43.637Z,9.43
2022-11-21T14:28:15.420Z,8.73
2022-11-21T14:30:44.891Z,8.40
2022-11-21T14:33:26.583Z,9.80
2022-11-21T14:35:56.597Z,8.00
2022-11-21T14:38:25.011Z,9.23
2022-11-21T14:41:13.538Z,9.00
2022-11-21T14:43:42.919Z,11.47
2022-11-21T14:46:14.853Z,8.90
2022-11-21T14:48:43.224Z,9.60
2022-11-21T14:51:12.437Z,9.87
2022-11-21T14:53:41.439Z,9.60
2022-11-21T14:56:10.782Z,9.40
2022-11-21T14:58:38.611Z,9.40
2022-11-21T15:01:09.313Z,8.97
2022-11-21T15:03:36.908Z,7.87
2022-11-21T15:06:08.317Z,9.90
2022-11-21T15:11:30.743Z,8.70
2022-11-21T15:14:17.331Z,9.67
2022-11-21T15:16:47.550Z,9.97
2022-11-21T15:19:21.698Z,8.43
2022-11-21T15:21:50.344Z,8.53
2022-11-21T15:24:19.180Z,9.03
2022-11-21T15:26:47.705Z,8.60
2022-11-21T15:29:22.760Z,8.83
2022-11-21T15:34:58.612Z,9.47
2022-11-21T15:37:27.825Z,8.20
2022-11-21T15:39:55.758Z,8.90
2022-11-21T15:42:36.355Z,8.60
2022-11-21T15:45:20.745Z,10.17
2022-11-21T15:47:49.916Z,10.43
2022-11-21T15:50:18.263Z,9.27
2022-11-21T15:52:46.541Z,8.10
2022-11-21T15:55:17.481Z,9.50
2022-11-21T15:57:12.683Z,9.07
2022-11-21T15:57:45.130Z,9.40
2022-11-21T16:00:13.549Z,8.50
2022-11-21T16:02:41.549Z,8.90
2022-11-21T16:05:14.034Z,9.43
2022-11-21T16:07:42.057Z,10.23
2022-11-21T16:10:18.408Z,9.07
2022-11-21T16:12:50.535Z,8.50
2022-11-21T16:15:18.050Z,8.60
2022-11-21T16:17:47.363Z,10.10
2022-11-21T16:20:16.819Z,9.67
2022-11-21T16:22:47.683Z,9.57
2022-11-21T16:25:16.121Z,8.93
2022-11-21T16:27:43.776Z,8.23
2022-11-21T16:30:12.267Z,9.23
2022-11-21T16:32:40.025Z,8.67
2022-11-21T16:35:08.189Z,7.67
2022-11-21T16:37:37.047Z,9.40
2022-11-21T16:40:05.407Z,9.40
2022-11-21T16:42:33.187Z,8.87
2022-11-21T16:45:00.754Z,8.50
2022-11-21T16:47:28.528Z,9.93
2022-11-21T16:49:56.052Z,8.60
2022-11-21T16:52:23.851Z,8.33
2022-11-21T16:54:52.671Z,8.70
2022-11-21T16:57:20.388Z,8.50
2022-11-21T16:59:49.100Z,10.90
2022-11-21T17:02:16.602Z,9.97
2022-11-21T17:04:44.179Z,10.20
2022-11-21T17:07:11.840Z,9.90
2022-11-21T17:09:39.430Z,10.37
2022-11-21T17:12:08.997Z,9.60
2022-11-21T17:14:36.856Z,11.03
2022-11-21T17:17:04.484Z,9.70
2022-11-21T17:19:32.127Z,9.20
2022-11-21T17:22:00.321Z,10.20
2022-11-21T17:24:28.196Z,10.50
2022-11-21T17:26:57.220Z,10.47
2022-11-21T17:29:26.110Z,9.97
2022-11-21T17:31:53.735Z,10.00
2022-11-21T17:34:22.504Z,10.57
2022-11-21T17:36:50.580Z,10.10
2022-11-21T17:39:18.846Z,9.83
2022-11-21T17:41:46.513Z,10.10
2022-11-21T17:44:15.811Z,11.20
2022-11-21T17:46:44.748Z,10.70
2022-11-21T17:49:12.740Z,10.87
2022-11-21T17:51:41.252Z,10.80
2022-11-21T17:54:09.598Z,12.40
2022-11-21T17:56:43.862Z,10.30
2022-11-21T17:59:14.031Z,11.97
2022-11-21T18:01:42.625Z,13.70
2022-11-21T18:04:15.221Z,12.60
2022-11-21T18:06:43.271Z,13.53
2022-11-21T18:09:11.487Z,11.37
2022-11-21T18:11:40.566Z,14.37
2022-11-21T18:14:09.026Z,15.17
2022-11-21T18:16:37.168Z,14.13
2022-11-21T18:19:04.765Z,13.23
2022-11-21T18:21:35.335Z,12.90
2022-11-21T18:24:03.244Z,15.30
2022-11-21T18:26:31.986Z,16.10
2022-11-21T18:29:28.665Z,16.17
2022-11-21T18:31:49.278Z,15.17
2022-11-21T18:34:17.087Z,17.57
2022-11-21T18:36:47.575Z,16.90
2022-11-21T18:39:15.872Z,17.20
2022-11-21T18:41:44.010Z,15.10
2022-11-21T18:44:20.069Z,19.00
2022-11-21T18:46:49.512Z,16.73
2022-11-21T18:49:18.008Z,18.60
2022-11-21T18:51:48.429Z,16.93
2022-11-21T18:54:16.446Z,19.50
2022-11-21T18:56:43.974Z,20.43
2022-11-21T18:59:11.565Z,22.60
2022-11-21T19:01:40.295Z,21.23
2022-11-21T19:04:08.623Z,21.80
2022-11-21T19:06:36.564Z,21.77
2022-11-21T19:09:05.618Z,23.17
2022-11-21T19:11:33.203Z,23.47
2022-11-21T19:14:01.320Z,24.00
2022-11-21T19:16:31.007Z,24.87
2022-11-21T19:19:33.129Z,22.43
2022-11-21T19:21:47.200Z,23.67
2022-11-21T19:24:16.615Z,25.60
2022-11-21T19:26:44.554Z,23.00
2022-11-21T19:29:13.266Z,23.00
2022-11-21T19:31:45.804Z,22.83
2022-11-21T19:34:13.899Z,23.13
2022-11-21T19:36:41.773Z,22.37
2022-11-21T19:39:09.900Z,22.13
2022-11-21T19:41:39.179Z,23.20
2022-11-21T19:44:07.005Z,23.33
2022-11-21T19:46:36.169Z,23.40
2022-11-21T19:49:04.051Z,26.10
2022-11-21T19:51:33.494Z,24.07
2022-11-21T19:54:02.832Z,23.30
2022-11-21T19:56:30.616Z,23.40
2022-11-21T19:58:59.813Z,21.23
2022-11-21T20:01:29.380Z,24.50
2022-11-21T20:03:59.064Z,23.80
2022-11-21T20:06:28.266Z,21.00
2022-11-21T20:08:57.469Z,20.90
2022-11-21T20:11:26.332Z,20.33
2022-11-21T20:13:54.292Z,19.33
2022-11-21T20:16:24.820Z,21.17
2022-11-21T20:18:55.198Z,20.50
2022-11-21T20:21:23.001Z,22.00
2022-11-21T20:23:50.927Z,18.67
2022-11-21T20:26:20.791Z,19.53
2022-11-21T20:28:48.797Z,20.63
2022-11-21T20:31:18.346Z,20.27
2022-11-21T20:33:48.839Z,20.20
2022-11-21T20:36:18.626Z,20.13
2022-11-21T20:38:50.742Z,20.53
2022-11-21T20:41:18.390Z,19.23
2022-11-21T20:44:27.356Z,19.37
2022-11-21T20:46:34.294Z,19.37
2022-11-21T20:49:03.477Z,18.97
2022-11-21T20:54:18.775Z,17.00
2022-11-21T20:56:46.444Z,16.27
2022-11-21T20:59:14.427Z,18.93
2022-11-21T21:01:42.363Z,18.37
2022-11-21T21:04:12.128Z,19.30
2022-11-21T21:06:40.064Z,18.17
2022-11-21T21:09:07.819Z,15.80
2022-11-21T21:11:52.487Z,18.07
2022-11-21T21:14:21.259Z,20.40
2022-11-21T21:16:48.887Z,20.33
2022-11-21T21:19:18.371Z,19.57
2022-11-21T21:21:46.329Z,18.07
2022-11-21T21:24:14.483Z,18.30
2022-11-21T21:26:43.873Z,17.53
2022-11-21T21:29:12.731Z,17.27
2022-11-21T21:31:45.195Z,17.33
2022-11-21T21:34:14.689Z,20.30
2022-11-21T21:36:43.778Z,19.73
2022-11-21T21:39:11.403Z,17.30
2022-11-21T21:41:44.305Z,19.30
2022-11-21T21:44:11.962Z,18.53
2022-11-21T21:46:39.577Z,17.87
2022-11-21T21:49:07.320Z,19.20
2022-11-21T21:51:36.726Z,19.70
2022-11-21T21:54:06.331Z,17.83
2022-11-21T21:56:34.590Z,18.37
2022-11-21T21:59:02.460Z,18.20
2022-11-21T22:01:31.627Z,17.37
2022-11-21T22:04:01.045Z,19.73
2022-11-21T22:06:28.989Z,17.80
2022-11-21T22:08:57.241Z,16.50
2022-11-21T22:11:27.520Z,18.27
2022-11-21T22:13:56.820Z,18.27
2022-11-21T22:16:25.082Z,17.90
2022-11-21T22:18:52.852Z,18.57
2022-11-21T22:21:23.645Z,17.90
2022-11-21T22:24:22.866Z,19.83
2022-11-21T22:26:41.022Z,18.60
2022-11-21T22:29:08.884Z,20.27
2022-11-21T22:31:37.382Z,17.73
2022-11-21T22:34:05.054Z,18.60
2022-11-21T22:36:32.817Z,18.77
2022-11-21T22:39:00.417Z,19.57
2022-11-21T22:41:28.355Z,17.40
2022-11-21T22:43:58.688Z,18.80
2022-11-21T22:46:27.616Z,16.77
2022-11-21T22:48:55.520Z,19.00
2022-11-21T22:51:24.787Z,19.40
2022-11-21T22:53:53.121Z,19.13
2022-11-21T22:56:22.277Z,17.77
2022-11-21T22:58:50.476Z,15.03
2022-11-21T23:01:20.991Z,17.03
2022-11-21T23:03:49.001Z,17.53
2022-11-21T23:06:18.584Z,16.27
2022-11-21T23:08:46.553Z,15.67
2022-11-21T23:11:16.329Z,16.30
2022-11-21T23:13:46.169Z,16.00
2022-11-21T23:16:14.418Z,16.53
2022-11-21T23:18:46.034Z,14.17
2022-11-21T23:21:14.522Z,16.37
2022-11-21T23:23:43.893Z,13.37
2022-11-21T23:26:12.494Z,15.77
2022-11-21T23:28:40.179Z,15.50
2022-11-21T23:31:07.852Z,17.87
2022-11-21T23:33:35.463Z,17.50
2022-11-21T23:36:04.656Z,17.20
2022-11-21T23:38:32.223Z,15.97
2022-11-21T23:40:59.700Z,15.60
2022-11-21T23:43:27.262Z,16.80
2022-11-21T23:45:55.295Z,17.87
2022-11-21T23:48:24.035Z,17.57
2022-11-21T23:50:51.773Z,18.07
2022-11-21T23:53:21.231Z,18.00
2022-11-21T23:55:49.310Z,16.13
2022-11-21T23:58:17.037Z,16.77
